createdAt,value
2023-02-03T00:00:36.029Z,100035.88
2023-02-03T00:03:26.113Z,100027.53
2023-02-03T00:05:55.794Z,100032.47
2023-02-03T00:08:24.828Z,100014.75
2023-02-03T00:10:54.348Z,100021.03
2023-02-03T00:13:23.825Z,100025.91
2023-02-03T00:15:52.804Z,100031.50
2023-02-03T00:18:21.571Z,100046.63
2023-02-03T00:20:51.823Z,100046.53
2023-02-03T00:23:20.654Z,100051.28
2023-02-03T00:25:49.534Z,100047.09
2023-02-03T00:28:18.139Z,100049.91
2023-02-03T00:30:46.998Z,100049.19
2023-02-03T00:33:16.295Z,100052.09
2023-02-03T00:35:45.140Z,100049.63
2023-02-03T00:38:15.131Z,100054.19
2023-02-03T00:40:44.547Z,100051.25
2023-02-03T00:43:13.187Z,100050.59
2023-02-03T00:45:42.230Z,100051.44
2023-02-03T00:48:11.105Z,100054.44
2023-02-03T00:50:40.129Z,100065.78
2023-02-03T00:53:08.866Z,100072.19
2023-02-03T00:55:39.252Z,100070.44
2023-02-03T00:58:08.013Z,100076.13
2023-02-03T01:00:36.947Z,100076.22
2023-02-03T01:03:05.555Z,100072.69
2023-02-03T01:05:34.609Z,100073.28
2023-02-03T01:08:03.716Z,100081.91
2023-02-03T01:10:33.967Z,100085.38
2023-02-03T01:13:03.907Z,100082.50
2023-02-03T01:15:33.251Z,100079.78
2023-02-03T01:18:02.171Z,100079.28
2023-02-03T01:20:31.476Z,100083.34
2023-02-03T01:23:00.333Z,100078.41
2023-02-03T01:25:29.321Z,100096.88
2023-02-03T01:27:57.905Z,100084.16
2023-02-03T01:30:28.535Z,100102.81
2023-02-03T01:32:57.291Z,100098.97
2023-02-03T01:35:27.620Z,100100.66
2023-02-03T01:37:56.243Z,100107.06
2023-02-03T01:40:25.952Z,100103.75
2023-02-03T01:42:54.750Z,100101.84
2023-02-03T01:45:23.604Z,100103.41
2023-02-03T01:47:56.797Z,100102.59
2023-02-03T01:50:31.983Z,100109.19
2023-02-03T01:53:05.017Z,100107.44
2023-02-03T01:55:38.536Z,100111.94
2023-02-03T01:58:12.190Z,100112.69
2023-02-03T02:00:41.679Z,100107.63
2023-02-03T02:03:12.383Z,100104.91
2023-02-03T02:05:48.404Z,100114.03
2023-02-03T02:08:18.675Z,100105.91
2023-02-03T02:10:48.165Z,100108.75
2023-02-03T02:13:18.988Z,100097.25
2023-02-03T02:15:54.952Z,100089.66
2023-02-03T02:18:42.067Z,100108.25
2023-02-03T02:21:59.352Z,100103.66
2023-02-03T02:25:00.473Z,100108.88
2023-02-03T02:28:09.341Z,100119.59
2023-02-03T02:30:50.754Z,100117.16
2023-02-03T02:33:37.769Z,100119.78
2023-02-03T02:36:17.492Z,100124.59
2023-02-03T02:38:59.072Z,100121.72
2023-02-03T02:41:36.433Z,100119.63
2023-02-03T02:44:11.397Z,100127.41
2023-02-03T02:46:44.596Z,100135.59
2023-02-03T02:49:19.730Z,100130.72
2023-02-03T02:51:50.121Z,100131.66
2023-02-03T02:54:23.573Z,100148.53
2023-02-03T02:56:57.555Z,100138.47
2023-02-03T02:59:26.636Z,100150.53
2023-02-03T03:01:55.314Z,100148.63
2023-02-03T03:04:28.851Z,100155.28
2023-02-03T03:07:01.962Z,100165.44
2023-02-03T03:09:36.950Z,100156.56
2023-02-03T03:12:12.163Z,100162.72
2023-02-03T03:14:44.855Z,100175.09
2023-02-03T03:17:18.316Z,100177.31
2023-02-03T03:19:54.556Z,100167.59
2023-02-03T03:22:27.308Z,100183.97
2023-02-03T03:25:01.389Z,100178.75
2023-02-03T03:27:35.639Z,100184.19
2023-02-03T03:30:10.683Z,100181.38
2023-02-03T03:32:40.160Z,100190.06
2023-02-03T03:35:10.740Z,100185.97
2023-02-03T03:37:45.220Z,100187.44
2023-02-03T03:40:21.039Z,100188.72
2023-02-03T03:42:54.731Z,100187.38
2023-02-03T03:45:29.107Z,100181.06
2023-02-03T03:48:03.774Z,100183.50
2023-02-03T03:50:38.206Z,100191.88
2023-02-03T03:53:10.245Z,100187.81
2023-02-03T03:55:42.404Z,100194.31
2023-02-03T03:58:14.158Z,100193.84
2023-02-03T04:00:44.341Z,100195.78
2023-02-03T04:03:17.512Z,100189.00
2023-02-03T04:05:47.915Z,100191.75
2023-02-03T04:08:16.496Z,100189.88
2023-02-03T04:10:45.648Z,100195.97
2023-02-03T04:13:16.062Z,100193.28
2023-02-03T04:15:45.113Z,100187.81
2023-02-03T04:18:15.454Z,100187.69
2023-02-03T04:20:44.897Z,100194.34
2023-02-03T04:23:14.737Z,100204.81
2023-02-03T04:25:43.564Z,100199.69
2023-02-03T04:28:12.435Z,100188.63
2023-02-03T04:30:41.358Z,100184.47
2023-02-03T04:33:09.886Z,100189.47
2023-02-03T04:35:38.891Z,100191.78
2023-02-03T04:38:07.476Z,100187.88
2023-02-03T04:40:37.715Z,100194.53
2023-02-03T04:43:09.989Z,100195.59
2023-02-03T04:45:39.436Z,100208.34
2023-02-03T04:48:07.941Z,100198.75
2023-02-03T04:50:36.752Z,100194.44
2023-02-03T04:53:05.341Z,100197.63
2023-02-03T04:55:34.329Z,100196.13
2023-02-03T04:58:04.968Z,100199.97
2023-02-03T05:00:33.809Z,100182.16
2023-02-03T05:03:02.433Z,100186.72
2023-02-03T05:05:31.569Z,100193.41
2023-02-03T05:08:00.113Z,100196.50
2023-02-03T05:10:29.524Z,100188.72
2023-02-03T05:12:58.149Z,100199.03
2023-02-03T05:15:28.494Z,100191.13
2023-02-03T05:17:57.915Z,100200.28
2023-02-03T05:20:28.603Z,100202.63
2023-02-03T05:22:57.315Z,100210.06
2023-02-03T05:25:26.261Z,100203.59
2023-02-03T05:27:54.918Z,100211.63
2023-02-03T05:30:24.020Z,100219.16
2023-02-03T05:32:53.983Z,100209.22
2023-02-03T05:35:22.849Z,100205.66
2023-02-03T05:37:51.335Z,100214.72
2023-02-03T05:40:37.569Z,100206.81
2023-02-03T05:43:06.242Z,100197.09
2023-02-03T05:45:35.200Z,100196.72
2023-02-03T05:48:05.478Z,100198.63
2023-02-03T05:50:38.375Z,100210.03
2023-02-03T05:53:10.258Z,100215.06
2023-02-03T05:55:39.414Z,100199.78
2023-02-03T05:58:08.029Z,100205.63
2023-02-03T06:00:37.795Z,100218.69
2023-02-03T06:03:07.884Z,100221.03
2023-02-03T06:05:40.971Z,100220.81
2023-02-03T06:08:09.794Z,100222.16
2023-02-03T06:10:38.851Z,100224.50
2023-02-03T06:13:11.962Z,100227.25
2023-02-03T06:15:41.783Z,100229.91
2023-02-03T06:18:11.778Z,100233.84
2023-02-03T06:20:40.795Z,100236.22
2023-02-03T06:23:09.551Z,100236.09
2023-02-03T06:25:38.449Z,100237.31
2023-02-03T06:28:07.097Z,100244.09
2023-02-03T06:30:36.129Z,100238.31
2023-02-03T06:33:04.946Z,100249.91
2023-02-03T06:35:35.156Z,100238.13
2023-02-03T06:38:03.635Z,100240.09
2023-02-03T06:40:32.598Z,100243.41
2023-02-03T06:43:01.146Z,100252.44
2023-02-03T06:45:30.188Z,100244.34
2023-02-03T06:47:58.860Z,100250.16
2023-02-03T06:50:28.200Z,100252.00
2023-02-03T06:52:58.316Z,100251.41
2023-02-03T06:55:27.201Z,100257.53
2023-02-03T06:57:55.763Z,100265.03
2023-02-03T07:00:25.086Z,100257.09
2023-02-03T07:02:58.125Z,100261.13
2023-02-03T07:05:28.299Z,100261.03
2023-02-03T07:07:59.149Z,100262.53
2023-02-03T07:10:28.368Z,100259.03
2023-02-03T07:12:57.044Z,100263.19
2023-02-03T07:15:25.866Z,100263.31
2023-02-03T07:17:55.323Z,100277.63
2023-02-03T07:20:25.287Z,100258.53
2023-02-03T07:22:55.288Z,100259.28
2023-02-03T07:25:26.160Z,100268.53
2023-02-03T07:27:55.033Z,100266.97
2023-02-03T07:30:23.860Z,100258.41
2023-02-03T07:32:54.069Z,100260.72
2023-02-03T07:35:23.261Z,100273.97
2023-02-03T07:37:51.966Z,100269.94
2023-02-03T07:40:21.746Z,100276.38
2023-02-03T07:42:51.717Z,100272.63
2023-02-03T07:45:22.224Z,100287.34
2023-02-03T07:47:50.962Z,100279.81
2023-02-03T07:50:19.861Z,100278.81
2023-02-03T07:52:48.382Z,100276.41
2023-02-03T07:55:17.342Z,100280.06
2023-02-03T07:57:46.160Z,100263.53
2023-02-03T08:00:18.608Z,100268.81
2023-02-03T08:02:47.382Z,100273.84
2023-02-03T08:05:17.464Z,100274.66
2023-02-03T08:07:46.407Z,100263.34
2023-02-03T08:10:16.893Z,100267.34
2023-02-03T08:12:46.802Z,100262.53
2023-02-03T08:15:17.417Z,100260.63
2023-02-03T08:17:46.372Z,100268.94
2023-02-03T08:20:15.116Z,100262.91
2023-02-03T08:22:43.650Z,100269.50
2023-02-03T08:25:13.149Z,100271.63
2023-02-03T08:27:42.954Z,100270.72
2023-02-03T08:30:15.050Z,100267.38
2023-02-03T08:32:44.950Z,100265.63
2023-02-03T08:35:13.834Z,100275.69
2023-02-03T08:37:42.630Z,100272.69
2023-02-03T08:40:13.263Z,100270.53
2023-02-03T08:42:42.519Z,100276.72
2023-02-03T08:45:12.213Z,100268.50
2023-02-03T08:47:40.752Z,100265.19
2023-02-03T08:50:12.194Z,100270.06
2023-02-03T08:52:40.997Z,100258.34
2023-02-03T08:55:11.572Z,100256.84
2023-02-03T08:57:42.129Z,100272.00
2023-02-03T09:00:12.633Z,100264.78
2023-02-03T09:02:41.250Z,100275.34
2023-02-03T09:05:12.632Z,100267.28
2023-02-03T09:07:41.330Z,100263.00
2023-02-03T09:10:10.986Z,100268.50
2023-02-03T09:12:39.872Z,100282.28
2023-02-03T09:15:09.324Z,100276.31
2023-02-03T09:17:37.829Z,100273.63
2023-02-03T09:20:07.594Z,100257.72
2023-02-03T09:22:37.615Z,100262.81
2023-02-03T09:25:07.667Z,100254.44
2023-02-03T09:27:36.317Z,100251.22
2023-02-03T09:30:06.045Z,100246.06
2023-02-03T09:32:36.083Z,100261.06
2023-02-03T09:35:05.107Z,100255.81
2023-02-03T09:37:33.828Z,100253.19
2023-02-03T09:40:04.186Z,100260.69
2023-02-03T09:43:00.417Z,100271.28
2023-02-03T09:45:31.760Z,100265.44
2023-02-03T09:48:06.681Z,100254.75
2023-02-03T09:50:40.070Z,100264.00
2023-02-03T09:53:19.632Z,100251.84
2023-02-03T09:55:50.066Z,100247.63
2023-02-03T09:58:23.226Z,100252.91
2023-02-03T10:00:53.941Z,100238.03
2023-02-03T10:03:31.982Z,100254.25
2023-02-03T10:06:12.082Z,100270.47
2023-02-03T10:08:54.118Z,100245.50
2023-02-03T10:11:39.890Z,100250.16
2023-02-03T10:14:24.169Z,100240.16
2023-02-03T10:17:09.572Z,100236.13
2023-02-03T10:19:45.641Z,100232.38
2023-02-03T10:22:19.688Z,100220.44
2023-02-03T10:24:54.584Z,100213.69
2023-02-03T10:27:26.429Z,100210.72
2023-02-03T10:30:00.547Z,100219.34
2023-02-03T10:32:30.519Z,100198.44
2023-02-03T10:34:59.320Z,100205.75
2023-02-03T10:37:32.129Z,100206.84
2023-02-03T10:40:02.893Z,100211.63
2023-02-03T10:42:49.538Z,100187.34
2023-02-03T10:45:18.626Z,100206.19
2023-02-03T10:47:51.781Z,100191.97
2023-02-03T10:50:22.932Z,100191.72
2023-02-03T10:52:52.388Z,100182.28
2023-02-03T10:55:32.774Z,100175.31
2023-02-03T10:58:13.465Z,100173.25
2023-02-03T11:00:42.947Z,100172.03
2023-02-03T11:03:24.604Z,100176.50
2023-02-03T11:06:09.291Z,100156.94
2023-02-03T11:08:40.753Z,100161.13
2023-02-03T11:11:14.338Z,100146.59
2023-02-03T11:13:44.697Z,100144.09
2023-02-03T11:16:17.111Z,100157.03
2023-02-03T11:18:53.436Z,100160.88
2023-02-03T11:21:25.163Z,100139.25
2023-02-03T11:24:04.151Z,100131.34
2023-02-03T11:26:37.143Z,100126.97
2023-02-03T11:29:09.237Z,100134.22
2023-02-03T11:31:38.639Z,100112.16
2023-02-03T11:34:16.987Z,100117.31
2023-02-03T11:36:45.707Z,100109.97
2023-02-03T11:39:24.969Z,100108.56
2023-02-03T11:41:54.184Z,100114.75
2023-02-03T11:44:29.324Z,100103.72
2023-02-03T11:47:02.135Z,100104.22
2023-02-03T11:49:55.160Z,100085.38
2023-02-03T11:52:40.021Z,100086.16
2023-02-03T11:55:21.086Z,100072.97
2023-02-03T11:58:01.866Z,100065.69
2023-02-03T12:00:44.963Z,100074.31
2023-02-03T12:03:49.639Z,100060.41
2023-02-03T12:06:51.124Z,100053.53
2023-02-03T12:09:30.311Z,100049.13
2023-02-03T12:12:20.276Z,100037.16
2023-02-03T12:14:58.413Z,100044.09
2023-02-03T12:17:48.227Z,100034.91
2023-02-03T12:20:40.610Z,100033.84
2023-02-03T12:23:20.636Z,100032.13
2023-02-03T12:26:04.123Z,100025.75
2023-02-03T12:28:47.105Z,100020.84
2023-02-03T12:31:22.700Z,100021.63
2023-02-03T12:33:57.948Z,100014.72
2023-02-03T12:36:30.750Z,100007.03
2023-02-03T12:39:04.001Z,99993.50
2023-02-03T12:41:37.962Z,99977.38
2023-02-03T12:44:17.198Z,99981.22
2023-02-03T12:46:50.714Z,99982.63
2023-02-03T12:49:32.680Z,99976.00
2023-02-03T12:52:06.822Z,99975.78
2023-02-03T12:54:45.504Z,99962.13
2023-02-03T12:57:23.277Z,99954.16
2023-02-03T13:00:05.231Z,99945.44
2023-02-03T13:02:43.853Z,99948.91
2023-02-03T13:05:22.660Z,99952.63
2023-02-03T13:07:58.508Z,99954.38
2023-02-03T13:10:36.361Z,99937.25
2023-02-03T13:13:09.268Z,99936.66
2023-02-03T13:15:44.745Z,99930.84
2023-02-03T13:18:26.436Z,99921.38
2023-02-03T13:20:57.727Z,99923.16
2023-02-03T13:23:26.907Z,99902.28
2023-02-03T13:26:18.844Z,99896.19
2023-02-03T13:29:01.459Z,99886.59
2023-02-03T13:31:45.261Z,99885.69
2023-02-03T13:34:50.967Z,99887.50
2023-02-03T13:37:46.125Z,99883.97
2023-02-03T13:40:23.955Z,99887.47
2023-02-03T13:42:56.675Z,99873.53
2023-02-03T13:45:30.253Z,99873.53
2023-02-03T13:48:11.205Z,99866.56
2023-02-03T13:50:40.984Z,99860.41
2023-02-03T13:53:20.108Z,99845.50
2023-02-03T13:55:55.781Z,99842.06
2023-02-03T13:58:28.022Z,99837.66
2023-02-03T14:01:23.792Z,99835.16
2023-02-03T14:03:52.847Z,99828.91
2023-02-03T14:07:03.945Z,99814.97
2023-02-03T14:09:42.034Z,99812.34
2023-02-03T14:12:23.421Z,99808.84
2023-02-03T14:15:04.943Z,99800.91
2023-02-03T14:18:06.083Z,99801.72
2023-02-03T14:20:52.189Z,99792.41
2023-02-03T14:23:40.968Z,99786.06
2023-02-03T14:26:23.438Z,99766.88
2023-02-03T14:28:53.935Z,99768.59
2023-02-03T14:31:24.171Z,99767.69
2023-02-03T14:34:15.817Z,99757.09
2023-02-03T14:36:49.234Z,99740.47
2023-02-03T14:39:41.566Z,99730.72
2023-02-03T14:42:22.899Z,99716.81
2023-02-03T14:45:07.655Z,99713.19
2023-02-03T14:47:51.120Z,99706.25
2023-02-03T14:50:40.259Z,99706.94
2023-02-03T14:53:31.414Z,99697.28
2023-02-03T14:56:14.865Z,99693.75
2023-02-03T14:58:49.417Z,99687.72
2023-02-03T15:01:49.188Z,99679.97
2023-02-03T15:04:25.807Z,99671.34
2023-02-03T15:11:28.973Z,99651.41
2023-02-03T15:14:26.443Z,99658.47
2023-02-03T15:22:15.038Z,99679.91
2023-02-03T15:24:44.453Z,99684.09
2023-02-03T15:28:02.706Z,99690.50
2023-02-03T15:31:50.882Z,99683.50
2023-02-03T15:34:47.194Z,99669.31
2023-02-03T15:38:11.226Z,99676.78
2023-02-03T15:41:10.206Z,99662.81
2023-02-03T15:44:33.728Z,99658.34
2023-02-03T15:47:59.441Z,99656.59
2023-02-03T15:51:20.720Z,99647.00
2023-02-03T15:55:10.555Z,99640.75
2023-02-03T15:58:28.599Z,99634.88
2023-02-03T16:01:28.043Z,99636.63
2023-02-03T16:04:48.317Z,99619.03
2023-02-03T16:07:21.817Z,99625.94
2023-02-03T16:09:54.225Z,99617.06
2023-02-03T16:13:11.507Z,99625.44
2023-02-03T16:17:19.245Z,99598.97
2023-02-03T16:21:05.002Z,99591.88
2023-02-03T16:24:49.651Z,99580.22
2023-02-03T16:27:46.237Z,99574.13
2023-02-03T16:38:11.514Z,99567.56
2023-02-03T16:44:42.048Z,99553.81
2023-02-03T16:47:42.530Z,99548.47
2023-02-03T16:53:30.245Z,99531.16
2023-02-03T16:56:01.463Z,99544.59
2023-02-03T17:03:52.431Z,99532.28
2023-02-03T17:10:04.679Z,99515.19
2023-02-03T17:12:34.449Z,99517.72
2023-02-03T17:15:27.960Z,99512.50
2023-02-03T17:18:22.773Z,99516.66
2023-02-03T17:31:14.860Z,99489.97
2023-02-03T17:37:02.446Z,99497.78
2023-02-03T17:54:22.226Z,99452.56
2023-02-03T17:57:15.801Z,99428.81
2023-02-03T18:00:11.681Z,99438.31
2023-02-03T18:02:43.902Z,99432.94
2023-02-03T18:09:02.019Z,99414.34
2023-02-03T18:11:32.648Z,99415.16
2023-02-03T18:14:26.507Z,99410.16
2023-02-03T18:16:55.748Z,99413.13
2023-02-03T18:20:14.775Z,99417.75
2023-02-03T18:22:45.494Z,99424.97
2023-02-03T18:25:17.343Z,99430.72
2023-02-03T18:31:06.310Z,99408.25
2023-02-03T18:34:03.808Z,99396.75
2023-02-03T18:36:57.732Z,99399.25
2023-02-03T18:39:51.404Z,99404.66
2023-02-03T18:43:59.737Z,99395.16
2023-02-03T18:50:12.237Z,99386.44
2023-02-03T18:53:32.591Z,99382.03
2023-02-03T19:00:34.735Z,99381.41
2023-02-03T19:03:28.967Z,99389.75
2023-02-03T19:10:32.373Z,99403.72
2023-02-03T19:13:01.581Z,99411.41
2023-02-03T19:15:31.728Z,99417.25
2023-02-03T19:18:01.167Z,99410.84
2023-02-03T19:24:13.828Z,99434.38
2023-02-03T19:27:34.973Z,99442.84
2023-02-03T19:34:13.811Z,99448.31
2023-02-03T19:44:37.045Z,99459.97
2023-02-03T19:47:33.035Z,99449.78
2023-02-03T19:53:44.278Z,99437.78
2023-02-03T19:56:38.415Z,99429.84
2023-02-03T20:02:25.985Z,99419.34
2023-02-03T20:05:46.423Z,99409.84
2023-02-03T20:08:16.885Z,99411.63
2023-02-03T20:11:34.652Z,99410.81
2023-02-03T20:14:28.117Z,99403.06
2023-02-03T20:18:11.634Z,99394.41
2023-02-03T20:21:05.331Z,99390.03
2023-02-03T20:24:49.157Z,99382.25
2023-02-03T20:28:07.174Z,99389.19
2023-02-03T20:31:02.928Z,99388.31
2023-02-03T20:34:22.809Z,99382.25
2023-02-03T20:36:54.141Z,99378.78
2023-02-03T20:40:14.716Z,99373.56
2023-02-03T20:49:19.559Z,99352.69
2023-02-03T20:52:15.971Z,99362.25
2023-02-03T20:55:09.417Z,99362.31
2023-02-03T20:58:30.590Z,99359.66
2023-02-03T21:01:50.749Z,99355.34
2023-02-03T21:05:49.456Z,99354.41
2023-02-03T21:08:44.185Z,99351.88
2023-02-03T21:11:37.509Z,99343.16
2023-02-03T21:14:59.825Z,99333.66
2023-02-03T21:17:53.397Z,99326.72
2023-02-03T21:21:38.168Z,99325.84
2023-02-03T21:24:25.398Z,99329.31
2023-02-03T21:30:28.422Z,99314.56
2023-02-03T21:33:41.734Z,99317.09
2023-02-03T21:40:25.005Z,99300.59
2023-02-03T21:42:54.689Z,99290.22
2023-02-03T21:46:19.836Z,99282.41
2023-02-03T21:53:28.884Z,99277.25
2023-02-03T21:59:42.414Z,99264.19
2023-02-03T22:02:50.101Z,99265.81
2023-02-03T22:06:20.940Z,99262.38
2023-02-03T22:08:55.176Z,99252.78
2023-02-03T22:12:14.205Z,99248.50
2023-02-03T22:14:43.147Z,99251.94
2023-02-03T22:17:15.031Z,99245.81
2023-02-03T22:20:33.978Z,99249.38
2023-02-03T22:28:26.857Z,99247.63
2023-02-03T22:35:01.766Z,99237.13
2023-02-03T22:37:55.168Z,99229.47
2023-02-03T22:41:37.616Z,99221.50
2023-02-03T22:44:57.464Z,99208.44
2023-02-03T22:47:26.609Z,99211.94
2023-02-03T22:50:46.147Z,99201.53
2023-02-03T22:56:57.075Z,99196.22
2023-02-03T22:59:26.060Z,99186.66
2023-02-03T23:01:56.821Z,99180.44
2023-02-03T23:04:51.716Z,99170.53
2023-02-03T23:11:27.183Z,99174.00
2023-02-03T23:14:46.877Z,99174.09
2023-02-03T23:17:40.888Z,99167.09
2023-02-03T23:20:58.489Z,99151.41
2023-02-03T23:24:16.424Z,99144.47
2023-02-03T23:30:27.221Z,99158.44
2023-02-03T23:37:05.552Z,99143.59
2023-02-03T23:42:52.029Z,99150.72
2023-02-03T23:46:35.986Z,99122.88
2023-02-03T23:49:31.513Z,99136.84
2023-02-03T23:59:25.643Z,99152.00
